sensor_id;sensor_type;location;lat;lon;timestamp;temperature;humidity
78536;SHT31;67829;51.968;5.684;2023-04-01T00:01:13;12.7;75.8
78536;SHT31;67829;51.968;5.684;2023-04-01T00:03:43;12.7;75.8
78536;SHT31;67829;51.968;5.684;2023-04-01T00:06:13;12.7;75.8
78536;SHT31;67829;51.968;5.684;2023-04-01T00:08:42;12.6;75.8
78536;SHT31;67829;51.968;5.684;2023-04-01T00:11:11;12.6;75.9
78536;SHT31;67829;51.968;5.684;2023-04-01T00:13:42;12.6;75.9
78536;SHT31;67829;51.968;5.684;2023-04-01T00:16:11;12.6;75.8
78536;SHT31;67829;51.968;5.684;2023-04-01T00:18:40;12.6;75.9
78536;SHT31;67829;51.968;5.684;2023-04-01T00:21:09;12.6;76.1
78536;SHT31;67829;51.968;5.684;2023-04-01T00:23:38;12.6;76.0
78536;SHT31;67829;51.968;5.684;2023-04-01T00:26:06;12.6;76.0
78536;SHT31;67829;51.968;5.684;2023-04-01T00:28:35;12.6;76.1
78536;SHT31;67829;51.968;5.684;2023-04-01T00:31:06;12.6;76.1
78536;SHT31;67829;51.968;5.684;2023-04-01T00:33:36;12.6;76.1
78536;SHT31;67829;51.968;5.684;2023-04-01T00:36:08;12.7;75.9
78536;SHT31;67829;51.968;5.684;2023-04-01T00:38:38;12.7;75.9
78536;SHT31;67829;51.968;5.684;2023-04-01T00:41:09;12.7;75.9
78536;SHT31;67829;51.968;5.684;2023-04-01T00:43:41;12.7;75.9
78536;SHT31;67829;51.968;5.684;2023-04-01T00:46:11;12.7;75.9
78536;SHT31;67829;51.968;5.684;2023-04-01T00:48:45;12.7;75.9
78536;SHT31;67829;51.968;5.684;2023-04-01T00:51:18;12.7;75.9
78536;SHT31;67829;51.968;5.684;2023-04-01T00:53:51;12.7;76.0
78536;SHT31;67829;51.968;5.684;2023-04-01T00:56:24;12.7;76.0
78536;SHT31;67829;51.968;5.684;2023-04-01T00:58:58;12.7;76.1
78536;SHT31;67829;51.968;5.684;2023-04-01T01:01:29;12.7;76.2
78536;SHT31;67829;51.968;5.684;2023-04-01T01:03:58;12.7;76.3
78536;SHT31;67829;51.968;5.684;2023-04-01T01:06:42;12.7;76.2
78536;SHT31;67829;51.968;5.684;2023-04-01T01:09:28;12.7;76.3
78536;SHT31;67829;51.968;5.684;2023-04-01T01:12:08;12.7;76.4
78536;SHT31;67829;51.968;5.684;2023-04-01T01:14:51;12.7;76.4
78536;SHT31;67829;51.968;5.684;2023-04-01T01:17:32;12.7;76.5
78536;SHT31;67829;51.968;5.684;2023-04-01T01:20:38;12.7;76.6
78536;SHT31;67829;51.968;5.684;2023-04-01T01:24:13;12.7;76.4
78536;SHT31;67829;51.968;5.684;2023-04-01T01:27:00;12.7;76.5
78536;SHT31;67829;51.968;5.684;2023-04-01T01:30:40;12.7;76.2
78536;SHT31;67829;51.968;5.684;2023-04-01T01:33:41;12.7;75.3
78536;SHT31;67829;51.968;5.684;2023-04-01T01:36:14;12.7;74.9
78536;SHT31;67829;51.968;5.684;2023-04-01T01:38:47;12.7;74.7
78536;SHT31;67829;51.968;5.684;2023-04-01T01:41:18;12.7;74.9
78536;SHT31;67829;51.968;5.684;2023-04-01T01:43:51;12.6;74.7
78536;SHT31;67829;51.968;5.684;2023-04-01T01:46:25;12.6;74.6
78536;SHT31;67829;51.968;5.684;2023-04-01T01:48:55;12.6;74.5
78536;SHT31;67829;51.968;5.684;2023-04-01T01:51:27;12.6;74.1
78536;SHT31;67829;51.968;5.684;2023-04-01T01:53:56;12.6;74.2
78536;SHT31;67829;51.968;5.684;2023-04-01T01:56:28;12.6;74.3
78536;SHT31;67829;51.968;5.684;2023-04-01T01:59:01;12.5;74.3
78536;SHT31;67829;51.968;5.684;2023-04-01T02:01:36;12.5;74.2
78536;SHT31;67829;51.968;5.684;2023-04-01T02:04:08;12.5;74.5
78536;SHT31;67829;51.968;5.684;2023-04-01T02:06:42;12.5;74.6
78536;SHT31;67829;51.968;5.684;2023-04-01T02:09:15;12.5;74.8
78536;SHT31;67829;51.968;5.684;2023-04-01T02:11:48;12.5;75.1
78536;SHT31;67829;51.968;5.684;2023-04-01T02:14:21;12.5;75.3
78536;SHT31;67829;51.968;5.684;2023-04-01T02:16:55;12.4;75.5
78536;SHT31;67829;51.968;5.684;2023-04-01T02:19:29;12.4;75.6
78536;SHT31;67829;51.968;5.684;2023-04-01T02:22:03;12.4;75.6
78536;SHT31;67829;51.968;5.684;2023-04-01T02:24:35;12.4;75.5
78536;SHT31;67829;51.968;5.684;2023-04-01T02:27:09;12.4;75.6
78536;SHT31;67829;51.968;5.684;2023-04-01T02:29:40;12.4;75.6
78536;SHT31;67829;51.968;5.684;2023-04-01T02:32:10;12.4;75.6
78536;SHT31;67829;51.968;5.684;2023-04-01T02:34:39;12.4;75.8
78536;SHT31;67829;51.968;5.684;2023-04-01T02:37:09;12.4;75.9
78536;SHT31;67829;51.968;5.684;2023-04-01T02:39:39;12.4;76.0
78536;SHT31;67829;51.968;5.684;2023-04-01T02:42:09;12.4;75.9
78536;SHT31;67829;51.968;5.684;2023-04-01T02:44:38;12.4;76.0
78536;SHT31;67829;51.968;5.684;2023-04-01T02:47:07;12.4;75.9
78536;SHT31;67829;51.968;5.684;2023-04-01T02:49:35;12.4;75.9
78536;SHT31;67829;51.968;5.684;2023-04-01T02:52:04;12.3;75.9
78536;SHT31;67829;51.968;5.684;2023-04-01T02:54:33;12.3;75.7
78536;SHT31;67829;51.968;5.684;2023-04-01T02:57:01;12.3;75.7
78536;SHT31;67829;51.968;5.684;2023-04-01T02:59:30;12.3;76.0
78536;SHT31;67829;51.968;5.684;2023-04-01T03:01:58;12.3;76.0
78536;SHT31;67829;51.968;5.684;2023-04-01T03:04:27;12.3;75.9
78536;SHT31;67829;51.968;5.684;2023-04-01T03:06:55;12.3;75.9
78536;SHT31;67829;51.968;5.684;2023-04-01T03:09:24;12.3;75.8
78536;SHT31;67829;51.968;5.684;2023-04-01T03:11:52;12.3;75.8
78536;SHT31;67829;51.968;5.684;2023-04-01T03:14:21;12.3;75.9
78536;SHT31;67829;51.968;5.684;2023-04-01T03:16:50;12.3;75.9
78536;SHT31;67829;51.968;5.684;2023-04-01T03:19:18;12.2;75.9
78536;SHT31;67829;51.968;5.684;2023-04-01T03:21:47;12.2;75.8
78536;SHT31;67829;51.968;5.684;2023-04-01T03:24:15;12.2;75.9
78536;SHT31;67829;51.968;5.684;2023-04-01T03:26:44;12.2;75.9
78536;SHT31;67829;51.968;5.684;2023-04-01T03:29:12;12.2;75.7
78536;SHT31;67829;51.968;5.684;2023-04-01T03:31:42;12.2;75.7
78536;SHT31;67829;51.968;5.684;2023-04-01T03:34:10;12.2;75.7
78536;SHT31;67829;51.968;5.684;2023-04-01T03:36:41;12.2;75.7
78536;SHT31;67829;51.968;5.684;2023-04-01T03:39:09;12.2;75.6
78536;SHT31;67829;51.968;5.684;2023-04-01T03:41:38;12.2;75.7
78536;SHT31;67829;51.968;5.684;2023-04-01T03:44:07;12.2;75.7
78536;SHT31;67829;51.968;5.684;2023-04-01T03:46:35;12.2;75.7
78536;SHT31;67829;51.968;5.684;2023-04-01T03:49:06;12.2;75.8
78536;SHT31;67829;51.968;5.684;2023-04-01T03:51:37;12.2;75.7
78536;SHT31;67829;51.968;5.684;2023-04-01T03:54:07;12.2;75.8
78536;SHT31;67829;51.968;5.684;2023-04-01T03:56:36;12.2;75.7
78536;SHT31;67829;51.968;5.684;2023-04-01T03:59:07;12.2;75.5
78536;SHT31;67829;51.968;5.684;2023-04-01T04:01:36;12.2;75.6
78536;SHT31;67829;51.968;5.684;2023-04-01T04:04:04;12.2;75.7
78536;SHT31;67829;51.968;5.684;2023-04-01T04:06:34;12.1;75.8
78536;SHT31;67829;51.968;5.684;2023-04-01T04:09:02;12.1;75.8
78536;SHT31;67829;51.968;5.684;2023-04-01T04:11:32;12.1;76.0
78536;SHT31;67829;51.968;5.684;2023-04-01T04:14:01;12.1;76.0
78536;SHT31;67829;51.968;5.684;2023-04-01T04:16:30;12.1;76.0
78536;SHT31;67829;51.968;5.684;2023-04-01T04:18:59;12.1;76.2
78536;SHT31;67829;51.968;5.684;2023-04-01T04:21:28;12.1;76.2
78536;SHT31;67829;51.968;5.684;2023-04-01T04:23:56;12.1;76.2
78536;SHT31;67829;51.968;5.684;2023-04-01T04:26:26;12.1;76.2
78536;SHT31;67829;51.968;5.684;2023-04-01T04:28:55;12.0;76.5
78536;SHT31;67829;51.968;5.684;2023-04-01T04:31:25;12.0;76.6
78536;SHT31;67829;51.968;5.684;2023-04-01T04:33:54;12.0;76.8
78536;SHT31;67829;51.968;5.684;2023-04-01T04:36:25;12.0;76.8
78536;SHT31;67829;51.968;5.684;2023-04-01T04:38:53;12.0;77.0
78536;SHT31;67829;51.968;5.684;2023-04-01T04:41:22;12.0;77.0
78536;SHT31;67829;51.968;5.684;2023-04-01T04:43:54;12.0;77.1
78536;SHT31;67829;51.968;5.684;2023-04-01T04:46:23;12.0;77.1
78536;SHT31;67829;51.968;5.684;2023-04-01T04:48:52;12.0;77.2
78536;SHT31;67829;51.968;5.684;2023-04-01T04:51:21;12.0;77.2
78536;SHT31;67829;51.968;5.684;2023-04-01T04:53:50;12.0;77.3
78536;SHT31;67829;51.968;5.684;2023-04-01T04:56:20;12.0;77.5
78536;SHT31;67829;51.968;5.684;2023-04-01T04:58:51;12.0;77.5
78536;SHT31;67829;51.968;5.684;2023-04-01T05:01:22;12.0;77.5
78536;SHT31;67829;51.968;5.684;2023-04-01T05:03:52;12.0;77.5
78536;SHT31;67829;51.968;5.684;2023-04-01T05:06:21;12.1;77.5
78536;SHT31;67829;51.968;5.684;2023-04-01T05:08:51;12.1;77.5
78536;SHT31;67829;51.968;5.684;2023-04-01T05:11:22;12.1;77.4
78536;SHT31;67829;51.968;5.684;2023-04-01T05:13:52;12.1;77.4
78536;SHT31;67829;51.968;5.684;2023-04-01T05:16:21;12.1;77.4
78536;SHT31;67829;51.968;5.684;2023-04-01T05:18:49;12.1;77.4
78536;SHT31;67829;51.968;5.684;2023-04-01T05:21:18;12.1;77.5
78536;SHT31;67829;51.968;5.684;2023-04-01T05:23:47;12.1;77.6
78536;SHT31;67829;51.968;5.684;2023-04-01T05:26:15;12.1;77.6
78536;SHT31;67829;51.968;5.684;2023-04-01T05:28:44;12.2;77.6
78536;SHT31;67829;51.968;5.684;2023-04-01T05:31:13;12.2;77.7
78536;SHT31;67829;51.968;5.684;2023-04-01T05:33:41;12.2;77.8
78536;SHT31;67829;51.968;5.684;2023-04-01T05:36:13;12.2;77.8
78536;SHT31;67829;51.968;5.684;2023-04-01T05:38:42;12.2;77.7
78536;SHT31;67829;51.968;5.684;2023-04-01T05:41:14;12.3;77.6
78536;SHT31;67829;51.968;5.684;2023-04-01T05:43:43;12.3;77.5
78536;SHT31;67829;51.968;5.684;2023-04-01T05:46:12;12.3;77.5
78536;SHT31;67829;51.968;5.684;2023-04-01T05:48:40;12.4;77.4
78536;SHT31;67829;51.968;5.684;2023-04-01T05:51:14;12.4;77.3
78536;SHT31;67829;51.968;5.684;2023-04-01T05:53:43;12.4;77.3
78536;SHT31;67829;51.968;5.684;2023-04-01T05:56:12;12.4;77.3
78536;SHT31;67829;51.968;5.684;2023-04-01T05:58:41;12.4;77.1
78536;SHT31;67829;51.968;5.684;2023-04-01T06:01:11;12.5;77.2
78536;SHT31;67829;51.968;5.684;2023-04-01T06:03:39;12.5;77.2
78536;SHT31;67829;51.968;5.684;2023-04-01T06:06:13;12.5;77.1
78536;SHT31;67829;51.968;5.684;2023-04-01T06:08:43;12.5;77.1
78536;SHT31;67829;51.968;5.684;2023-04-01T06:11:22;12.5;77.1
78536;SHT31;67829;51.968;5.684;2023-04-01T06:14:18;12.5;77.0
78536;SHT31;67829;51.968;5.684;2023-04-01T06:17:04;12.5;77.0
78536;SHT31;67829;51.968;5.684;2023-04-01T06:19:39;12.6;77.0
78536;SHT31;67829;51.968;5.684;2023-04-01T06:22:27;12.6;76.8
78536;SHT31;67829;51.968;5.684;2023-04-01T06:25:32;12.6;76.8
78536;SHT31;67829;51.968;5.684;2023-04-01T06:32:42;12.6;76.8
78536;SHT31;67829;51.968;5.684;2023-04-01T06:35:22;12.6;77.0
78536;SHT31;67829;51.968;5.684;2023-04-01T06:38:51;12.6;77.0
78536;SHT31;67829;51.968;5.684;2023-04-01T06:41:36;12.7;76.9
78536;SHT31;67829;51.968;5.684;2023-04-01T06:44:16;12.7;76.8
78536;SHT31;67829;51.968;5.684;2023-04-01T06:46:57;12.7;76.6
78536;SHT31;67829;51.968;5.684;2023-04-01T06:49:40;12.7;76.6
78536;SHT31;67829;51.968;5.684;2023-04-01T06:52:16;12.7;76.7
78536;SHT31;67829;51.968;5.684;2023-04-01T06:54:53;12.7;76.7
78536;SHT31;67829;51.968;5.684;2023-04-01T06:57:32;12.8;76.6
78536;SHT31;67829;51.968;5.684;2023-04-01T07:02:45;12.8;76.7
78536;SHT31;67829;51.968;5.684;2023-04-01T07:05:20;12.8;76.6
78536;SHT31;67829;51.968;5.684;2023-04-01T07:07:52;12.8;76.4
78536;SHT31;67829;51.968;5.684;2023-04-01T07:10:28;12.8;76.0
78536;SHT31;67829;51.968;5.684;2023-04-01T07:13:02;12.9;76.1
78536;SHT31;67829;51.968;5.684;2023-04-01T07:15:36;12.9;76.0
78536;SHT31;67829;51.968;5.684;2023-04-01T07:18:15;12.9;76.1
78536;SHT31;67829;51.968;5.684;2023-04-01T07:20:46;12.9;76.0
78536;SHT31;67829;51.968;5.684;2023-04-01T07:23:22;12.9;76.1
78536;SHT31;67829;51.968;5.684;2023-04-01T07:25:58;12.9;76.1
78536;SHT31;67829;51.968;5.684;2023-04-01T07:28:31;12.9;76.2
78536;SHT31;67829;51.968;5.684;2023-04-01T07:31:10;12.9;76.4
78536;SHT31;67829;51.968;5.684;2023-04-01T07:33:54;12.9;76.4
78536;SHT31;67829;51.968;5.684;2023-04-01T07:36:35;13.0;76.2
78536;SHT31;67829;51.968;5.684;2023-04-01T07:39:19;13.0;76.1
78536;SHT31;67829;51.968;5.684;2023-04-01T07:41:56;13.0;76.2
78536;SHT31;67829;51.968;5.684;2023-04-01T07:44:36;13.0;75.8
78536;SHT31;67829;51.968;5.684;2023-04-01T07:47:23;13.0;75.4
78536;SHT31;67829;51.968;5.684;2023-04-01T07:50:05;13.0;75.2
78536;SHT31;67829;51.968;5.684;2023-04-01T07:52:46;13.0;75.6
78536;SHT31;67829;51.968;5.684;2023-04-01T07:55:22;13.1;75.5
78536;SHT31;67829;51.968;5.684;2023-04-01T07:58:01;13.1;75.5
78536;SHT31;67829;51.968;5.684;2023-04-01T08:00:39;13.1;75.1
78536;SHT31;67829;51.968;5.684;2023-04-01T08:03:24;13.1;75.2
78536;SHT31;67829;51.968;5.684;2023-04-01T08:06:00;13.0;75.3
78536;SHT31;67829;51.968;5.684;2023-04-01T08:08:44;13.0;75.6
78536;SHT31;67829;51.968;5.684;2023-04-01T08:11:25;13.1;75.2
78536;SHT31;67829;51.968;5.684;2023-04-01T08:14:06;13.1;75.0
78536;SHT31;67829;51.968;5.684;2023-04-01T08:16:43;13.1;75.0
78536;SHT31;67829;51.968;5.684;2023-04-01T08:19:25;13.1;75.2
78536;SHT31;67829;51.968;5.684;2023-04-01T08:21:58;13.0;75.2
78536;SHT31;67829;51.968;5.684;2023-04-01T08:24:35;13.0;75.4
78536;SHT31;67829;51.968;5.684;2023-04-01T08:27:15;13.0;75.8
78536;SHT31;67829;51.968;5.684;2023-04-01T08:29:49;13.0;75.8
78536;SHT31;67829;51.968;5.684;2023-04-01T08:32:25;13.0;75.8
78536;SHT31;67829;51.968;5.684;2023-04-01T08:35:03;13.1;75.9
78536;SHT31;67829;51.968;5.684;2023-04-01T08:37:39;13.1;75.7
78536;SHT31;67829;51.968;5.684;2023-04-01T08:40:28;13.1;75.9
78536;SHT31;67829;51.968;5.684;2023-04-01T08:43:11;13.1;75.8
78536;SHT31;67829;51.968;5.684;2023-04-01T08:46:54;13.1;76.0
78536;SHT31;67829;51.968;5.684;2023-04-01T08:49:46;13.1;75.8
78536;SHT31;67829;51.968;5.684;2023-04-01T08:52:25;13.1;76.2
78536;SHT31;67829;51.968;5.684;2023-04-01T08:58:57;13.2;75.8
78536;SHT31;67829;51.968;5.684;2023-04-01T09:01:53;13.2;75.6
78536;SHT31;67829;51.968;5.684;2023-04-01T09:04:47;13.2;75.5
78536;SHT31;67829;51.968;5.684;2023-04-01T09:07:29;13.2;75.2
78536;SHT31;67829;51.968;5.684;2023-04-01T09:10:27;13.2;75.2
78536;SHT31;67829;51.968;5.684;2023-04-01T09:13:28;13.2;75.1
78536;SHT31;67829;51.968;5.684;2023-04-01T09:16:22;13.3;74.9
78536;SHT31;67829;51.968;5.684;2023-04-01T09:19:17;13.3;74.9
78536;SHT31;67829;51.968;5.684;2023-04-01T09:22:09;13.3;74.7
78536;SHT31;67829;51.968;5.684;2023-04-01T09:25:44;13.3;75.4
78536;SHT31;67829;51.968;5.684;2023-04-01T09:28:18;13.3;75.7
78536;SHT31;67829;51.968;5.684;2023-04-01T09:31:04;13.3;75.6
78536;SHT31;67829;51.968;5.684;2023-04-01T09:34:04;13.3;75.7
78536;SHT31;67829;51.968;5.684;2023-04-01T09:36:44;13.4;75.4
78536;SHT31;67829;51.968;5.684;2023-04-01T09:39:24;13.4;75.5
78536;SHT31;67829;51.968;5.684;2023-04-01T09:42:29;13.5;75.2
78536;SHT31;67829;51.968;5.684;2023-04-01T09:45:05;13.5;75.1
78536;SHT31;67829;51.968;5.684;2023-04-01T09:47:45;13.5;74.7
78536;SHT31;67829;51.968;5.684;2023-04-01T09:50:33;13.6;74.6
78536;SHT31;67829;51.968;5.684;2023-04-01T09:53:24;13.6;74.2
78536;SHT31;67829;51.968;5.684;2023-04-01T09:56:23;13.7;74.3
78536;SHT31;67829;51.968;5.684;2023-04-01T09:59:21;13.7;74.7
78536;SHT31;67829;51.968;5.684;2023-04-01T10:02:17;13.7;74.1
78536;SHT31;67829;51.968;5.684;2023-04-01T10:05:58;13.8;74.3
78536;SHT31;67829;51.968;5.684;2023-04-01T10:10:30;13.8;73.9
78536;SHT31;67829;51.968;5.684;2023-04-01T10:13:19;13.9;74.3
78536;SHT31;67829;51.968;5.684;2023-04-01T10:22:07;14.1;74.3
78536;SHT31;67829;51.968;5.684;2023-04-01T10:25:40;14.2;72.7
78536;SHT31;67829;51.968;5.684;2023-04-01T10:29:38;14.3;73.6
78536;SHT31;67829;51.968;5.684;2023-04-01T10:32:30;14.4;71.8
78536;SHT31;67829;51.968;5.684;2023-04-01T10:35:21;14.5;75.7
78536;SHT31;67829;51.968;5.684;2023-04-01T10:38:19;14.6;72.9
78536;SHT31;67829;51.968;5.684;2023-04-01T10:41:13;14.8;71.6
78536;SHT31;67829;51.968;5.684;2023-04-01T10:44:10;14.9;71.3
78536;SHT31;67829;51.968;5.684;2023-04-01T10:47:14;14.9;71.0
78536;SHT31;67829;51.968;5.684;2023-04-01T10:51:18;15.0;69.4
78536;SHT31;67829;51.968;5.684;2023-04-01T10:54:10;15.1;68.3
78536;SHT31;67829;51.968;5.684;2023-04-01T10:56:47;15.2;69.2
78536;SHT31;67829;51.968;5.684;2023-04-01T11:03:26;15.3;69.1
78536;SHT31;67829;51.968;5.684;2023-04-01T11:06:25;15.4;68.7
78536;SHT31;67829;51.968;5.684;2023-04-01T11:10:35;15.4;67.7
78536;SHT31;67829;51.968;5.684;2023-04-01T11:14:18;15.5;67.3
78536;SHT31;67829;51.968;5.684;2023-04-01T11:17:08;15.5;66.6
78536;SHT31;67829;51.968;5.684;2023-04-01T11:20:01;15.5;67.0
78536;SHT31;67829;51.968;5.684;2023-04-01T11:22:53;15.5;67.7
78536;SHT31;67829;51.968;5.684;2023-04-01T11:25:54;15.5;66.2
78536;SHT31;67829;51.968;5.684;2023-04-01T11:28:42;15.5;65.9
78536;SHT31;67829;51.968;5.684;2023-04-01T11:31:29;15.5;65.8
78536;SHT31;67829;51.968;5.684;2023-04-01T11:34:14;15.4;67.5
78536;SHT31;67829;51.968;5.684;2023-04-01T11:36:55;15.4;68.3
78536;SHT31;67829;51.968;5.684;2023-04-01T11:39:35;15.4;67.7
78536;SHT31;67829;51.968;5.684;2023-04-01T11:42:20;15.4;68.3
78536;SHT31;67829;51.968;5.684;2023-04-01T11:45:01;15.4;67.3
78536;SHT31;67829;51.968;5.684;2023-04-01T11:47:54;15.4;67.3
78536;SHT31;67829;51.968;5.684;2023-04-01T11:50:37;15.4;66.2
78536;SHT31;67829;51.968;5.684;2023-04-01T11:53:18;15.4;66.2
78536;SHT31;67829;51.968;5.684;2023-04-01T11:56:06;15.3;67.0
78536;SHT31;67829;51.968;5.684;2023-04-01T11:58:44;15.3;67.4
78536;SHT31;67829;51.968;5.684;2023-04-01T12:01:20;15.2;67.0
78536;SHT31;67829;51.968;5.684;2023-04-01T12:04:42;15.2;67.1
78536;SHT31;67829;51.968;5.684;2023-04-01T12:07:22;15.1;67.7
78536;SHT31;67829;51.968;5.684;2023-04-01T12:10:01;15.0;69.8
78536;SHT31;67829;51.968;5.684;2023-04-01T12:12:42;15.0;69.8
78536;SHT31;67829;51.968;5.684;2023-04-01T12:15:23;14.9;70.2
78536;SHT31;67829;51.968;5.684;2023-04-01T12:18:03;14.9;69.3
78536;SHT31;67829;51.968;5.684;2023-04-01T12:20:50;14.9;70.3
78536;SHT31;67829;51.968;5.684;2023-04-01T12:23:51;14.9;70.5
78536;SHT31;67829;51.968;5.684;2023-04-01T12:27:49;14.9;69.8
78536;SHT31;67829;51.968;5.684;2023-04-01T12:30:32;14.9;69.3
78536;SHT31;67829;51.968;5.684;2023-04-01T12:33:26;14.9;68.6
78536;SHT31;67829;51.968;5.684;2023-04-01T12:36:04;14.9;67.9
78536;SHT31;67829;51.968;5.684;2023-04-01T12:38:47;14.9;68.7
78536;SHT31;67829;51.968;5.684;2023-04-01T12:41:29;14.9;68.5
78536;SHT31;67829;51.968;5.684;2023-04-01T12:44:26;14.8;68.9
78536;SHT31;67829;51.968;5.684;2023-04-01T12:47:19;14.8;69.4
78536;SHT31;67829;51.968;5.684;2023-04-01T12:49:56;14.8;69.1
78536;SHT31;67829;51.968;5.684;2023-04-01T12:52:42;14.8;69.1
78536;SHT31;67829;51.968;5.684;2023-04-01T12:55:36;14.8;70.1
78536;SHT31;67829;51.968;5.684;2023-04-01T13:02:49;14.8;70.2
78536;SHT31;67829;51.968;5.684;2023-04-01T13:05:46;14.8;71.3
78536;SHT31;67829;51.968;5.684;2023-04-01T13:08:29;14.8;70.1
78536;SHT31;67829;51.968;5.684;2023-04-01T13:11:20;14.9;70.4
78536;SHT31;67829;51.968;5.684;2023-04-01T13:14:38;14.9;70.3
78536;SHT31;67829;51.968;5.684;2023-04-01T13:17:17;14.9;70.0
78536;SHT31;67829;51.968;5.684;2023-04-01T13:19:58;15.0;69.6
78536;SHT31;67829;51.968;5.684;2023-04-01T13:22:40;15.0;69.2
78536;SHT31;67829;51.968;5.684;2023-04-01T13:25:22;15.0;69.6
78536;SHT31;67829;51.968;5.684;2023-04-01T13:27:58;15.0;69.0
78536;SHT31;67829;51.968;5.684;2023-04-01T13:30:34;15.0;69.1
78536;SHT31;67829;51.968;5.684;2023-04-01T13:33:15;15.0;69.4
78536;SHT31;67829;51.968;5.684;2023-04-01T13:35:54;15.0;69.4
78536;SHT31;67829;51.968;5.684;2023-04-01T13:38:56;14.9;69.9
78536;SHT31;67829;51.968;5.684;2023-04-01T13:41:40;14.9;69.6
78536;SHT31;67829;51.968;5.684;2023-04-01T13:44:19;14.9;70.3
78536;SHT31;67829;51.968;5.684;2023-04-01T13:47:15;14.9;70.7
78536;SHT31;67829;51.968;5.684;2023-04-01T13:50:32;14.8;70.8
78536;SHT31;67829;51.968;5.684;2023-04-01T13:55:55;14.8;70.5
78536;SHT31;67829;51.968;5.684;2023-04-01T13:58:42;14.8;71.1
78536;SHT31;67829;51.968;5.684;2023-04-01T14:01:17;14.8;71.6
78536;SHT31;67829;51.968;5.684;2023-04-01T14:06:57;14.7;72.0
78536;SHT31;67829;51.968;5.684;2023-04-01T14:09:48;14.7;71.7
78536;SHT31;67829;51.968;5.684;2023-04-01T14:12:31;14.7;71.8
78536;SHT31;67829;51.968;5.684;2023-04-01T14:15:20;14.7;72.1
78536;SHT31;67829;51.968;5.684;2023-04-01T14:18:07;14.7;71.7
78536;SHT31;67829;51.968;5.684;2023-04-01T14:20:42;14.7;71.5
78536;SHT31;67829;51.968;5.684;2023-04-01T14:23:29;14.7;72.0
78536;SHT31;67829;51.968;5.684;2023-04-01T14:27:52;14.8;72.1
78536;SHT31;67829;51.968;5.684;2023-04-01T14:34:43;14.8;70.8
78536;SHT31;67829;51.968;5.684;2023-04-01T14:37:35;14.8;71.7
78536;SHT31;67829;51.968;5.684;2023-04-01T14:40:20;14.8;71.6
78536;SHT31;67829;51.968;5.684;2023-04-01T14:43:20;14.9;71.1
78536;SHT31;67829;51.968;5.684;2023-04-01T14:46:08;14.9;71.1
78536;SHT31;67829;51.968;5.684;2023-04-01T14:48:51;14.9;71.6
78536;SHT31;67829;51.968;5.684;2023-04-01T14:51:31;14.9;71.6
78536;SHT31;67829;51.968;5.684;2023-04-01T14:54:05;14.9;71.2
78536;SHT31;67829;51.968;5.684;2023-04-01T14:56:38;14.9;71.4
78536;SHT31;67829;51.968;5.684;2023-04-01T14:59:13;14.9;71.3
78536;SHT31;67829;51.968;5.684;2023-04-01T15:01:47;14.9;71.3
78536;SHT31;67829;51.968;5.684;2023-04-01T15:04:56;14.9;71.1
78536;SHT31;67829;51.968;5.684;2023-04-01T15:07:52;14.9;71.0
78536;SHT31;67829;51.968;5.684;2023-04-01T15:14:44;15.0;70.1
78536;SHT31;67829;51.968;5.684;2023-04-01T15:18:08;15.0;71.2
78536;SHT31;67829;51.968;5.684;2023-04-01T15:21:36;15.0;71.4
78536;SHT31;67829;51.968;5.684;2023-04-01T15:24:17;15.0;71.7
78536;SHT31;67829;51.968;5.684;2023-04-01T15:27:33;15.0;71.4
78536;SHT31;67829;51.968;5.684;2023-04-01T15:30:29;15.0;71.0
78536;SHT31;67829;51.968;5.684;2023-04-01T15:35:24;15.0;71.4
78536;SHT31;67829;51.968;5.684;2023-04-01T15:37:58;15.0;71.3
78536;SHT31;67829;51.968;5.684;2023-04-01T15:40:38;15.0;70.0
78536;SHT31;67829;51.968;5.684;2023-04-01T15:43:27;15.0;69.8
78536;SHT31;67829;51.968;5.684;2023-04-01T15:49:05;14.9;70.2
78536;SHT31;67829;51.968;5.684;2023-04-01T15:51:48;14.9;69.9
78536;SHT31;67829;51.968;5.684;2023-04-01T15:54:25;14.8;69.8
78536;SHT31;67829;51.968;5.684;2023-04-01T15:57:27;14.8;69.1
78536;SHT31;67829;51.968;5.684;2023-04-01T16:00:12;14.7;69.9
78536;SHT31;67829;51.968;5.684;2023-04-01T16:02:48;14.7;70.0
78536;SHT31;67829;51.968;5.684;2023-04-01T16:05:32;14.6;69.8
78536;SHT31;67829;51.968;5.684;2023-04-01T16:08:28;14.6;70.3
78536;SHT31;67829;51.968;5.684;2023-04-01T16:11:11;14.5;70.7
78536;SHT31;67829;51.968;5.684;2023-04-01T16:13:48;14.5;70.4
78536;SHT31;67829;51.968;5.684;2023-04-01T16:16:34;14.4;70.0
78536;SHT31;67829;51.968;5.684;2023-04-01T16:19:31;14.4;70.6
78536;SHT31;67829;51.968;5.684;2023-04-01T16:22:07;14.3;70.2
78536;SHT31;67829;51.968;5.684;2023-04-01T16:24:43;14.3;70.2
78536;SHT31;67829;51.968;5.684;2023-04-01T16:27:18;14.2;70.7
78536;SHT31;67829;51.968;5.684;2023-04-01T16:29:56;14.2;70.8
78536;SHT31;67829;51.968;5.684;2023-04-01T16:32:46;14.2;71.1
78536;SHT31;67829;51.968;5.684;2023-04-01T16:35:39;14.1;70.8
78536;SHT31;67829;51.968;5.684;2023-04-01T16:38:16;14.1;70.9
78536;SHT31;67829;51.968;5.684;2023-04-01T16:41:01;14.1;71.6
78536;SHT31;67829;51.968;5.684;2023-04-01T16:43:39;14.0;71.4
78536;SHT31;67829;51.968;5.684;2023-04-01T16:46:22;14.0;72.0
78536;SHT31;67829;51.968;5.684;2023-04-01T16:48:59;14.0;71.6
78536;SHT31;67829;51.968;5.684;2023-04-01T16:51:37;14.0;71.3
78536;SHT31;67829;51.968;5.684;2023-04-01T16:54:16;14.0;71.6
78536;SHT31;67829;51.968;5.684;2023-04-01T16:56:52;14.0;71.9
78536;SHT31;67829;51.968;5.684;2023-04-01T16:59:26;14.0;71.7
78536;SHT31;67829;51.968;5.684;2023-04-01T17:02:02;14.0;71.3
78536;SHT31;67829;51.968;5.684;2023-04-01T17:04:38;13.9;70.7
78536;SHT31;67829;51.968;5.684;2023-04-01T17:07:24;13.9;70.3
78536;SHT31;67829;51.968;5.684;2023-04-01T17:10:03;13.9;69.8
78536;SHT31;67829;51.968;5.684;2023-04-01T17:12:41;13.8;70.2
78536;SHT31;67829;51.968;5.684;2023-04-01T17:15:19;13.8;70.9
78536;SHT31;67829;51.968;5.684;2023-04-01T17:17:57;13.8;70.5
78536;SHT31;67829;51.968;5.684;2023-04-01T17:20:38;13.7;71.0
78536;SHT31;67829;51.968;5.684;2023-04-01T17:23:13;13.7;70.9
78536;SHT31;67829;51.968;5.684;2023-04-01T17:25:51;13.7;71.1
78536;SHT31;67829;51.968;5.684;2023-04-01T17:28:36;13.6;70.7
78536;SHT31;67829;51.968;5.684;2023-04-01T17:31:14;13.6;70.8
78536;SHT31;67829;51.968;5.684;2023-04-01T17:34:00;13.6;70.7
78536;SHT31;67829;51.968;5.684;2023-04-01T17:36:37;13.5;70.4
78536;SHT31;67829;51.968;5.684;2023-04-01T17:39:32;13.5;70.7
78536;SHT31;67829;51.968;5.684;2023-04-01T17:42:10;13.4;71.1
78536;SHT31;67829;51.968;5.684;2023-04-01T17:44:51;13.4;70.3
78536;SHT31;67829;51.968;5.684;2023-04-01T17:47:36;13.3;70.8
78536;SHT31;67829;51.968;5.684;2023-04-01T17:50:21;13.3;71.1
78536;SHT31;67829;51.968;5.684;2023-04-01T17:53:06;13.2;70.3
78536;SHT31;67829;51.968;5.684;2023-04-01T17:55:49;13.2;71.1
78536;SHT31;67829;51.968;5.684;2023-04-01T17:58:22;13.1;70.0
78536;SHT31;67829;51.968;5.684;2023-04-01T18:01:12;13.1;70.1
78536;SHT31;67829;51.968;5.684;2023-04-01T18:04:28;13.0;70.3
78536;SHT31;67829;51.968;5.684;2023-04-01T18:07:20;13.0;70.6
78536;SHT31;67829;51.968;5.684;2023-04-01T18:10:23;13.0;70.9
78536;SHT31;67829;51.968;5.684;2023-04-01T18:13:25;12.9;70.5
78536;SHT31;67829;51.968;5.684;2023-04-01T18:16:17;12.9;70.7
78536;SHT31;67829;51.968;5.684;2023-04-01T18:18:59;12.9;70.3
78536;SHT31;67829;51.968;5.684;2023-04-01T18:21:39;12.8;69.9
78536;SHT31;67829;51.968;5.684;2023-04-01T18:24:17;12.8;70.3